sensor_id;sensor_type;location;lat;lon;timestamp;temperature;humidity
47090;DHT22;32840;52.516;13.294;2023-04-03T00:01:38;3.20;99.90
47090;DHT22;32840;52.516;13.294;2023-04-03T00:04:23;3.20;99.90
47090;DHT22;32840;52.516;13.294;2023-04-03T00:07:07;3.20;99.90
47090;DHT22;32840;52.516;13.294;2023-04-03T00:09:52;3.20;99.90
47090;DHT22;32840;52.516;13.294;2023-04-03T00:12:37;3.20;99.90
47090;DHT22;32840;52.516;13.294;2023-04-03T00:15:22;3.20;99.90
47090;DHT22;32840;52.516;13.294;2023-04-03T00:18:07;3.10;99.90
47090;DHT22;32840;52.516;13.294;2023-04-03T00:20:52;3.10;99.90
47090;DHT22;32840;52.516;13.294;2023-04-03T00:23:37;3.20;99.90
47090;DHT22;32840;52.516;13.294;2023-04-03T00:26:23;3.20;99.90
47090;DHT22;32840;52.516;13.294;2023-04-03T00:29:08;3.20;99.90
47090;DHT22;32840;52.516;13.294;2023-04-03T00:31:53;3.10;99.90
47090;DHT22;32840;52.516;13.294;2023-04-03T00:34:38;3.20;99.90
47090;DHT22;32840;52.516;13.294;2023-04-03T00:37:24;3.20;99.90
47090;DHT22;32840;52.516;13.294;2023-04-03T00:40:09;3.20;99.90
47090;DHT22;32840;52.516;13.294;2023-04-03T00:42:57;3.10;99.90
47090;DHT22;32840;52.516;13.294;2023-04-03T00:45:45;3.20;99.90
47090;DHT22;32840;52.516;13.294;2023-04-03T00:48:47;3.20;99.90
47090;DHT22;32840;52.516;13.294;2023-04-03T00:51:33;3.10;99.90
47090;DHT22;32840;52.516;13.294;2023-04-03T00:54:18;3.10;99.90
47090;DHT22;32840;52.516;13.294;2023-04-03T00:57:06;3.10;99.90
47090;DHT22;32840;52.516;13.294;2023-04-03T00:59:55;3.10;99.90
47090;DHT22;32840;52.516;13.294;2023-04-03T01:02:41;3.10;99.90
47090;DHT22;32840;52.516;13.294;2023-04-03T01:05:26;3.20;99.90
47090;DHT22;32840;52.516;13.294;2023-04-03T01:08:11;3.10;99.90
47090;DHT22;32840;52.516;13.294;2023-04-03T01:10:56;3.10;99.90
47090;DHT22;32840;52.516;13.294;2023-04-03T01:13:41;3.10;99.90
47090;DHT22;32840;52.516;13.294;2023-04-03T01:16:26;3.10;99.90
47090;DHT22;32840;52.516;13.294;2023-04-03T01:19:15;3.00;99.90
47090;DHT22;32840;52.516;13.294;2023-04-03T01:22:10;3.00;99.90
47090;DHT22;32840;52.516;13.294;2023-04-03T01:24:59;3.00;99.90
47090;DHT22;32840;52.516;13.294;2023-04-03T01:27:44;3.00;99.90
47090;DHT22;32840;52.516;13.294;2023-04-03T01:30:35;3.00;99.90
47090;DHT22;32840;52.516;13.294;2023-04-03T01:33:21;3.00;99.90
47090;DHT22;32840;52.516;13.294;2023-04-03T01:36:08;2.90;99.90
47090;DHT22;32840;52.516;13.294;2023-04-03T01:38:55;2.90;99.90
47090;DHT22;32840;52.516;13.294;2023-04-03T01:41:40;2.90;99.90
47090;DHT22;32840;52.516;13.294;2023-04-03T01:44:25;3.00;99.90
47090;DHT22;32840;52.516;13.294;2023-04-03T01:47:10;2.90;99.90
47090;DHT22;32840;52.516;13.294;2023-04-03T01:49:54;2.90;99.90
47090;DHT22;32840;52.516;13.294;2023-04-03T01:52:39;3.00;99.90
47090;DHT22;32840;52.516;13.294;2023-04-03T01:55:24;3.00;99.90
47090;DHT22;32840;52.516;13.294;2023-04-03T01:58:09;2.90;99.90
47090;DHT22;32840;52.516;13.294;2023-04-03T02:00:54;2.90;99.90
47090;DHT22;32840;52.516;13.294;2023-04-03T02:03:39;2.80;99.90
47090;DHT22;32840;52.516;13.294;2023-04-03T02:06:24;2.80;99.90
47090;DHT22;32840;52.516;13.294;2023-04-03T02:09:10;2.80;99.90
47090;DHT22;32840;52.516;13.294;2023-04-03T02:11:55;2.70;99.90
47090;DHT22;32840;52.516;13.294;2023-04-03T02:14:40;2.70;99.90
47090;DHT22;32840;52.516;13.294;2023-04-03T02:17:26;2.70;99.90
47090;DHT22;32840;52.516;13.294;2023-04-03T02:20:11;2.70;99.90
47090;DHT22;32840;52.516;13.294;2023-04-03T02:22:56;2.70;99.90
47090;DHT22;32840;52.516;13.294;2023-04-03T02:25:41;2.60;99.90
47090;DHT22;32840;52.516;13.294;2023-04-03T02:28:26;2.50;99.90
47090;DHT22;32840;52.516;13.294;2023-04-03T02:31:11;2.50;99.90
47090;DHT22;32840;52.516;13.294;2023-04-03T02:33:56;2.50;99.90
47090;DHT22;32840;52.516;13.294;2023-04-03T02:36:42;2.40;99.90
47090;DHT22;32840;52.516;13.294;2023-04-03T02:39:26;2.30;99.90
47090;DHT22;32840;52.516;13.294;2023-04-03T02:42:14;2.20;99.90
47090;DHT22;32840;52.516;13.294;2023-04-03T02:44:58;2.30;99.90
47090;DHT22;32840;52.516;13.294;2023-04-03T02:47:44;2.20;99.90
47090;DHT22;32840;52.516;13.294;2023-04-03T02:50:29;2.20;99.90
47090;DHT22;32840;52.516;13.294;2023-04-03T02:53:15;2.20;99.90
47090;DHT22;32840;52.516;13.294;2023-04-03T02:56:00;2.10;99.90
47090;DHT22;32840;52.516;13.294;2023-04-03T02:58:45;2.10;99.90
47090;DHT22;32840;52.516;13.294;2023-04-03T03:01:29;2.10;99.90
47090;DHT22;32840;52.516;13.294;2023-04-03T03:04:18;2.10;99.90
47090;DHT22;32840;52.516;13.294;2023-04-03T03:07:04;2.10;99.90
47090;DHT22;32840;52.516;13.294;2023-04-03T03:09:52;2.10;99.90
47090;DHT22;32840;52.516;13.294;2023-04-03T03:12:37;2.10;99.90
47090;DHT22;32840;52.516;13.294;2023-04-03T03:15:23;2.10;99.90
47090;DHT22;32840;52.516;13.294;2023-04-03T03:18:09;2.00;99.90
47090;DHT22;32840;52.516;13.294;2023-04-03T03:20:56;2.00;99.90
47090;DHT22;32840;52.516;13.294;2023-04-03T03:23:41;2.10;99.90
47090;DHT22;32840;52.516;13.294;2023-04-03T03:26:26;2.10;99.90
47090;DHT22;32840;52.516;13.294;2023-04-03T03:29:10;2.10;99.90
47090;DHT22;32840;52.516;13.294;2023-04-03T03:31:56;2.00;99.90
47090;DHT22;32840;52.516;13.294;2023-04-03T03:34:42;2.00;99.90
47090;DHT22;32840;52.516;13.294;2023-04-03T03:37:26;1.90;99.90
47090;DHT22;32840;52.516;13.294;2023-04-03T03:40:13;1.90;99.90
47090;DHT22;32840;52.516;13.294;2023-04-03T03:42:57;2.00;99.90
47090;DHT22;32840;52.516;13.294;2023-04-03T03:45:42;2.00;99.90
47090;DHT22;32840;52.516;13.294;2023-04-03T03:48:27;1.90;99.90
47090;DHT22;32840;52.516;13.294;2023-04-03T03:51:12;1.90;99.90
47090;DHT22;32840;52.516;13.294;2023-04-03T03:53:57;1.90;99.90
47090;DHT22;32840;52.516;13.294;2023-04-03T03:56:41;1.90;99.90
47090;DHT22;32840;52.516;13.294;2023-04-03T03:59:26;1.90;99.90
47090;DHT22;32840;52.516;13.294;2023-04-03T04:02:11;1.80;99.90
47090;DHT22;32840;52.516;13.294;2023-04-03T04:04:56;1.80;99.90
47090;DHT22;32840;52.516;13.294;2023-04-03T04:07:41;1.80;99.90
47090;DHT22;32840;52.516;13.294;2023-04-03T04:10:26;1.80;99.90
47090;DHT22;32840;52.516;13.294;2023-04-03T04:13:12;1.80;99.90
47090;DHT22;32840;52.516;13.294;2023-04-03T04:15:57;1.90;99.90
47090;DHT22;32840;52.516;13.294;2023-04-03T04:18:42;1.80;99.90
47090;DHT22;32840;52.516;13.294;2023-04-03T04:21:28;1.80;99.90
47090;DHT22;32840;52.516;13.294;2023-04-03T04:24:13;1.80;99.90
47090;DHT22;32840;52.516;13.294;2023-04-03T04:26:58;1.80;99.90
47090;DHT22;32840;52.516;13.294;2023-04-03T04:29:42;1.80;99.90
47090;DHT22;32840;52.516;13.294;2023-04-03T04:32:28;1.80;99.90
47090;DHT22;32840;52.516;13.294;2023-04-03T04:35:13;1.80;99.90
47090;DHT22;32840;52.516;13.294;2023-04-03T04:37:58;1.70;99.90
47090;DHT22;32840;52.516;13.294;2023-04-03T04:40:47;1.70;99.90
47090;DHT22;32840;52.516;13.294;2023-04-03T04:43:39;1.70;99.90
47090;DHT22;32840;52.516;13.294;2023-04-03T04:46:28;1.70;99.90
47090;DHT22;32840;52.516;13.294;2023-04-03T04:49:14;1.70;99.90
47090;DHT22;32840;52.516;13.294;2023-04-03T04:52:01;1.70;99.90
47090;DHT22;32840;52.516;13.294;2023-04-03T04:54:45;1.70;99.90
47090;DHT22;32840;52.516;13.294;2023-04-03T04:57:30;1.70;99.90
47090;DHT22;32840;52.516;13.294;2023-04-03T05:00:15;1.70;99.90
47090;DHT22;32840;52.516;13.294;2023-04-03T05:03:00;1.70;99.90
47090;DHT22;32840;52.516;13.294;2023-04-03T05:05:45;1.70;99.90
47090;DHT22;32840;52.516;13.294;2023-04-03T05:08:30;1.70;99.90
47090;DHT22;32840;52.516;13.294;2023-04-03T05:11:16;1.70;99.90
47090;DHT22;32840;52.516;13.294;2023-04-03T05:14:03;1.70;99.90
47090;DHT22;32840;52.516;13.294;2023-04-03T05:16:51;1.70;99.90
47090;DHT22;32840;52.516;13.294;2023-04-03T05:19:41;1.70;99.90
47090;DHT22;32840;52.516;13.294;2023-04-03T05:22:31;1.80;99.90
47090;DHT22;32840;52.516;13.294;2023-04-03T05:25:16;1.80;99.90
47090;DHT22;32840;52.516;13.294;2023-04-03T05:28:01;1.80;99.90
47090;DHT22;32840;52.516;13.294;2023-04-03T05:30:56;1.80;99.90
47090;DHT22;32840;52.516;13.294;2023-04-03T05:33:42;1.80;99.90
47090;DHT22;32840;52.516;13.294;2023-04-03T05:36:27;1.80;99.90
47090;DHT22;32840;52.516;13.294;2023-04-03T05:39:13;1.90;99.90
47090;DHT22;32840;52.516;13.294;2023-04-03T05:41:57;1.90;99.90
47090;DHT22;32840;52.516;13.294;2023-04-03T05:44:48;2.00;99.90
47090;DHT22;32840;52.516;13.294;2023-04-03T05:47:34;2.00;99.90
47090;DHT22;32840;52.516;13.294;2023-04-03T05:50:21;2.00;99.90
47090;DHT22;32840;52.516;13.294;2023-04-03T05:53:09;2.10;99.90
47090;DHT22;32840;52.516;13.294;2023-04-03T05:55:58;2.20;99.90
47090;DHT22;32840;52.516;13.294;2023-04-03T05:58:43;2.30;99.90
47090;DHT22;32840;52.516;13.294;2023-04-03T06:01:28;2.30;99.90
47090;DHT22;32840;52.516;13.294;2023-04-03T06:04:13;2.50;99.90
47090;DHT22;32840;52.516;13.294;2023-04-03T06:06:58;2.50;99.90
47090;DHT22;32840;52.516;13.294;2023-04-03T06:09:43;2.60;99.90
47090;DHT22;32840;52.516;13.294;2023-04-03T06:12:31;2.60;99.90
47090;DHT22;32840;52.516;13.294;2023-04-03T06:15:17;2.60;99.90
47090;DHT22;32840;52.516;13.294;2023-04-03T06:18:02;2.60;99.90
47090;DHT22;32840;52.516;13.294;2023-04-03T06:20:47;2.60;99.90
47090;DHT22;32840;52.516;13.294;2023-04-03T06:23:32;2.60;99.90
47090;DHT22;32840;52.516;13.294;2023-04-03T06:26:17;2.80;99.90
47090;DHT22;32840;52.516;13.294;2023-04-03T06:29:02;2.90;99.90
47090;DHT22;32840;52.516;13.294;2023-04-03T06:31:47;3.00;99.90
47090;DHT22;32840;52.516;13.294;2023-04-03T06:34:32;3.10;99.90
47090;DHT22;32840;52.516;13.294;2023-04-03T06:37:21;3.10;99.90
47090;DHT22;32840;52.516;13.294;2023-04-03T06:40:06;3.20;99.90
47090;DHT22;32840;52.516;13.294;2023-04-03T06:43:03;3.20;99.90
47090;DHT22;32840;52.516;13.294;2023-04-03T06:45:49;3.30;99.90
47090;DHT22;32840;52.516;13.294;2023-04-03T06:48:34;3.30;99.90
47090;DHT22;32840;52.516;13.294;2023-04-03T06:51:26;3.30;99.90
47090;DHT22;32840;52.516;13.294;2023-04-03T06:54:11;3.40;99.90
47090;DHT22;32840;52.516;13.294;2023-04-03T06:56:57;3.40;99.90
47090;DHT22;32840;52.516;13.294;2023-04-03T06:59:42;3.50;99.90
47090;DHT22;32840;52.516;13.294;2023-04-03T07:02:27;3.50;99.90
47090;DHT22;32840;52.516;13.294;2023-04-03T07:05:13;3.50;99.90
47090;DHT22;32840;52.516;13.294;2023-04-03T07:07:57;3.50;99.90
47090;DHT22;32840;52.516;13.294;2023-04-03T07:10:42;3.60;99.90
47090;DHT22;32840;52.516;13.294;2023-04-03T07:13:27;3.60;99.90
47090;DHT22;32840;52.516;13.294;2023-04-03T07:16:13;3.70;99.90
47090;DHT22;32840;52.516;13.294;2023-04-03T07:18:58;3.80;99.90
47090;DHT22;32840;52.516;13.294;2023-04-03T07:21:44;3.90;99.90
47090;DHT22;32840;52.516;13.294;2023-04-03T07:24:30;4.00;99.90
47090;DHT22;32840;52.516;13.294;2023-04-03T07:27:15;4.10;99.90
47090;DHT22;32840;52.516;13.294;2023-04-03T07:30:00;4.30;99.90
47090;DHT22;32840;52.516;13.294;2023-04-03T07:32:44;4.40;99.90
47090;DHT22;32840;52.516;13.294;2023-04-03T07:35:29;4.40;99.90
47090;DHT22;32840;52.516;13.294;2023-04-03T07:38:14;4.40;99.90
47090;DHT22;32840;52.516;13.294;2023-04-03T07:41:00;4.40;99.40
47090;DHT22;32840;52.516;13.294;2023-04-03T07:43:45;4.40;97.50
47090;DHT22;32840;52.516;13.294;2023-04-03T07:46:31;4.30;95.50
47090;DHT22;32840;52.516;13.294;2023-04-03T07:49:17;4.30;94.50
47090;DHT22;32840;52.516;13.294;2023-04-03T07:52:02;4.40;94.20
47090;DHT22;32840;52.516;13.294;2023-04-03T07:54:48;4.50;93.70
47090;DHT22;32840;52.516;13.294;2023-04-03T07:57:34;4.80;92.90
47090;DHT22;32840;52.516;13.294;2023-04-03T08:00:20;5.10;91.70
47090;DHT22;32840;52.516;13.294;2023-04-03T08:03:05;5.30;88.70
47090;DHT22;32840;52.516;13.294;2023-04-03T08:05:52;5.30;86.90
47090;DHT22;32840;52.516;13.294;2023-04-03T08:08:37;5.10;85.90
47090;DHT22;32840;52.516;13.294;2023-04-03T08:11:24;5.50;87.40
47090;DHT22;32840;52.516;13.294;2023-04-03T08:14:13;5.80;82.10
47090;DHT22;32840;52.516;13.294;2023-04-03T08:17:01;6.10;80.30
47090;DHT22;32840;52.516;13.294;2023-04-03T08:19:47;6.10;80.60
47090;DHT22;32840;52.516;13.294;2023-04-03T08:22:32;6.40;80.20
47090;DHT22;32840;52.516;13.294;2023-04-03T08:25:20;6.60;77.60
47090;DHT22;32840;52.516;13.294;2023-04-03T08:28:07;6.70;74.20
47090;DHT22;32840;52.516;13.294;2023-04-03T08:30:52;6.50;73.20
47090;DHT22;32840;52.516;13.294;2023-04-03T08:33:37;6.10;73.60
47090;DHT22;32840;52.516;13.294;2023-04-03T08:36:27;6.00;74.90
47090;DHT22;32840;52.516;13.294;2023-04-03T08:39:12;5.90;75.30
47090;DHT22;32840;52.516;13.294;2023-04-03T08:42:02;5.70;75.10
47090;DHT22;32840;52.516;13.294;2023-04-03T08:45:16;5.80;75.00
47090;DHT22;32840;52.516;13.294;2023-04-03T08:48:11;5.70;77.70
47090;DHT22;32840;52.516;13.294;2023-04-03T08:50:59;5.70;75.70
47090;DHT22;32840;52.516;13.294;2023-04-03T08:54:14;5.60;75.30
47090;DHT22;32840;52.516;13.294;2023-04-03T08:56:55;5.60;75.30
47090;DHT22;32840;52.516;13.294;2023-04-03T08:59:41;5.70;75.80
47090;DHT22;32840;52.516;13.294;2023-04-03T09:02:31;5.70;75.70
47090;DHT22;32840;52.516;13.294;2023-04-03T09:05:24;5.60;76.30
47090;DHT22;32840;52.516;13.294;2023-04-03T09:08:29;5.60;77.80
47090;DHT22;32840;52.516;13.294;2023-04-03T09:11:51;5.70;77.30
47090;DHT22;32840;52.516;13.294;2023-04-03T09:17:51;5.70;75.90
47090;DHT22;32840;52.516;13.294;2023-04-03T09:23:57;5.90;76.10
47090;DHT22;32840;52.516;13.294;2023-04-03T09:26:49;6.10;75.20
47090;DHT22;32840;52.516;13.294;2023-04-03T09:29:41;6.30;74.40
47090;DHT22;32840;52.516;13.294;2023-04-03T09:32:35;6.40;73.80
47090;DHT22;32840;52.516;13.294;2023-04-03T09:35:30;6.50;73.60
47090;DHT22;32840;52.516;13.294;2023-04-03T09:38:19;6.70;73.90
47090;DHT22;32840;52.516;13.294;2023-04-03T09:41:13;6.70;72.10
47090;DHT22;32840;52.516;13.294;2023-04-03T09:43:59;6.90;70.50
47090;DHT22;32840;52.516;13.294;2023-04-03T09:46:44;7.20;69.10
47090;DHT22;32840;52.516;13.294;2023-04-03T09:49:29;7.70;69.70
47090;DHT22;32840;52.516;13.294;2023-04-03T09:52:23;8.30;65.80
47090;DHT22;32840;52.516;13.294;2023-04-03T09:55:17;8.40;62.40
47090;DHT22;32840;52.516;13.294;2023-04-03T09:58:05;8.40;61.10
47090;DHT22;32840;52.516;13.294;2023-04-03T10:06:55;7.80;61.50
47090;DHT22;32840;52.516;13.294;2023-04-03T10:09:41;7.60;61.90
47090;DHT22;32840;52.516;13.294;2023-04-03T10:12:38;7.30;62.70
47090;DHT22;32840;52.516;13.294;2023-04-03T10:15:24;7.40;63.50
47090;DHT22;32840;52.516;13.294;2023-04-03T10:18:34;7.50;63.10
47090;DHT22;32840;52.516;13.294;2023-04-03T10:24:28;7.40;61.90
47090;DHT22;32840;52.516;13.294;2023-04-03T10:33:53;7.20;61.60
47090;DHT22;32840;52.516;13.294;2023-04-03T10:40:04;7.30;62.20
47090;DHT22;32840;52.516;13.294;2023-04-03T10:51:29;7.70;59.80
47090;DHT22;32840;52.516;13.294;2023-04-03T10:54:36;7.50;59.90
47090;DHT22;32840;52.516;13.294;2023-04-03T10:57:24;7.60;59.20
47090;DHT22;32840;52.516;13.294;2023-04-03T11:03:40;7.80;58.20
47090;DHT22;32840;52.516;13.294;2023-04-03T11:06:37;7.60;58.20
47090;DHT22;32840;52.516;13.294;2023-04-03T11:09:39;7.70;59.10
47090;DHT22;32840;52.516;13.294;2023-04-03T11:13:09;7.90;58.30
47090;DHT22;32840;52.516;13.294;2023-04-03T11:15:56;7.90;58.50
47090;DHT22;32840;52.516;13.294;2023-04-03T11:18:52;7.80;58.70
47090;DHT22;32840;52.516;13.294;2023-04-03T11:21:48;7.70;59.60
47090;DHT22;32840;52.516;13.294;2023-04-03T11:24:40;7.60;59.60
47090;DHT22;32840;52.516;13.294;2023-04-03T11:27:27;7.60;60.40
47090;DHT22;32840;52.516;13.294;2023-04-03T11:30:25;7.60;59.20
47090;DHT22;32840;52.516;13.294;2023-04-03T11:39:22;7.50;60.80
47090;DHT22;32840;52.516;13.294;2023-04-03T11:42:27;7.40;61.00
47090;DHT22;32840;52.516;13.294;2023-04-03T11:45:36;7.40;61.40
47090;DHT22;32840;52.516;13.294;2023-04-03T11:54:42;7.40;62.00
47090;DHT22;32840;52.516;13.294;2023-04-03T11:57:45;7.40;61.50
47090;DHT22;32840;52.516;13.294;2023-04-03T12:01:02;7.60;61.60
47090;DHT22;32840;52.516;13.294;2023-04-03T12:06:49;7.50;61.80
47090;DHT22;32840;52.516;13.294;2023-04-03T12:10:12;7.60;62.90
47090;DHT22;32840;52.516;13.294;2023-04-03T12:13:00;7.60;62.10
47090;DHT22;32840;52.516;13.294;2023-04-03T12:15:51;7.50;61.80
47090;DHT22;32840;52.516;13.294;2023-04-03T12:18:40;7.40;61.10
47090;DHT22;32840;52.516;13.294;2023-04-03T12:24:40;7.50;62.60
47090;DHT22;32840;52.516;13.294;2023-04-03T12:27:40;7.40;62.30
47090;DHT22;32840;52.516;13.294;2023-04-03T12:30:28;7.30;62.70
47090;DHT22;32840;52.516;13.294;2023-04-03T12:33:20;7.40;62.70
47090;DHT22;32840;52.516;13.294;2023-04-03T12:36:18;7.30;63.60
47090;DHT22;32840;52.516;13.294;2023-04-03T12:42:45;7.50;62.80
47090;DHT22;32840;52.516;13.294;2023-04-03T12:48:58;7.50;62.90
47090;DHT22;32840;52.516;13.294;2023-04-03T12:51:45;7.60;60.70
47090;DHT22;32840;52.516;13.294;2023-04-03T12:54:38;7.50;61.00
47090;DHT22;32840;52.516;13.294;2023-04-03T12:57:27;7.50;61.60
47090;DHT22;32840;52.516;13.294;2023-04-03T13:00:25;7.60;61.70
47090;DHT22;32840;52.516;13.294;2023-04-03T13:03:24;7.60;59.50
47090;DHT22;32840;52.516;13.294;2023-04-03T13:06:21;7.70;59.50
47090;DHT22;32840;52.516;13.294;2023-04-03T13:09:23;7.80;59.80
47090;DHT22;32840;52.516;13.294;2023-04-03T13:12:13;7.80;59.70
47090;DHT22;32840;52.516;13.294;2023-04-03T13:15:11;7.70;60.30
47090;DHT22;32840;52.516;13.294;2023-04-03T13:17:57;7.80;61.20
47090;DHT22;32840;52.516;13.294;2023-04-03T13:20:42;7.70;61.10
47090;DHT22;32840;52.516;13.294;2023-04-03T13:23:27;7.60;61.50
47090;DHT22;32840;52.516;13.294;2023-04-03T13:26:16;7.40;62.60
47090;DHT22;32840;52.516;13.294;2023-04-03T13:29:28;7.40;62.50
47090;DHT22;32840;52.516;13.294;2023-04-03T13:32:22;7.30;63.70
47090;DHT22;32840;52.516;13.294;2023-04-03T13:35:32;7.40;63.40
47090;DHT22;32840;52.516;13.294;2023-04-03T13:41:21;7.40;63.80
47090;DHT22;32840;52.516;13.294;2023-04-03T13:44:27;7.50;64.00
47090;DHT22;32840;52.516;13.294;2023-04-03T13:47:23;7.60;63.50
47090;DHT22;32840;52.516;13.294;2023-04-03T13:50:22;7.60;62.40
47090;DHT22;32840;52.516;13.294;2023-04-03T13:53:12;7.60;62.30
47090;DHT22;32840;52.516;13.294;2023-04-03T13:59:05;7.70;62.20
47090;DHT22;32840;52.516;13.294;2023-04-03T14:02:15;7.60;63.40
47090;DHT22;32840;52.516;13.294;2023-04-03T14:05:05;7.40;63.50
47090;DHT22;32840;52.516;13.294;2023-04-03T14:07:54;7.30;63.40
47090;DHT22;32840;52.516;13.294;2023-04-03T14:10:42;7.10;64.30
47090;DHT22;32840;52.516;13.294;2023-04-03T14:13:30;7.10;64.70
47090;DHT22;32840;52.516;13.294;2023-04-03T14:16:22;7.30;64.80
47090;DHT22;32840;52.516;13.294;2023-04-03T14:19:18;7.20;65.00
47090;DHT22;32840;52.516;13.294;2023-04-03T14:22:13;7.20;64.70
47090;DHT22;32840;52.516;13.294;2023-04-03T14:25:00;7.20;64.70
47090;DHT22;32840;52.516;13.294;2023-04-03T14:27:48;7.30;65.00
47090;DHT22;32840;52.516;13.294;2023-04-03T14:30:33;7.40;65.30
47090;DHT22;32840;52.516;13.294;2023-04-03T14:33:21;7.40;64.40
47090;DHT22;32840;52.516;13.294;2023-04-03T14:36:18;7.60;64.00
47090;DHT22;32840;52.516;13.294;2023-04-03T14:39:06;7.50;63.10
47090;DHT22;32840;52.516;13.294;2023-04-03T14:41:52;7.20;63.70
47090;DHT22;32840;52.516;13.294;2023-04-03T14:44:37;7.20;64.50
47090;DHT22;32840;52.516;13.294;2023-04-03T14:47:26;7.20;64.20
47090;DHT22;32840;52.516;13.294;2023-04-03T14:50:16;7.20;64.60
47090;DHT22;32840;52.516;13.294;2023-04-03T14:53:02;7.30;64.30
47090;DHT22;32840;52.516;13.294;2023-04-03T14:55:48;7.20;65.40
47090;DHT22;32840;52.516;13.294;2023-04-03T14:58:33;7.20;65.90
47090;DHT22;32840;52.516;13.294;2023-04-03T15:01:21;7.40;66.10
47090;DHT22;32840;52.516;13.294;2023-04-03T15:04:14;7.40;66.70
47090;DHT22;32840;52.516;13.294;2023-04-03T15:07:03;7.30;66.70
47090;DHT22;32840;52.516;13.294;2023-04-03T15:09:50;7.30;67.70
47090;DHT22;32840;52.516;13.294;2023-04-03T15:12:34;7.30;67.70
47090;DHT22;32840;52.516;13.294;2023-04-03T15:15:21;7.30;68.40
47090;DHT22;32840;52.516;13.294;2023-04-03T15:18:18;7.30;68.70
47090;DHT22;32840;52.516;13.294;2023-04-03T15:21:03;7.30;68.60
47090;DHT22;32840;52.516;13.294;2023-04-03T15:23:50;7.30;69.20
47090;DHT22;32840;52.516;13.294;2023-04-03T15:26:35;7.10;68.60
47090;DHT22;32840;52.516;13.294;2023-04-03T15:29:21;7.20;69.40
47090;DHT22;32840;52.516;13.294;2023-04-03T15:32:08;7.20;69.40
47090;DHT22;32840;52.516;13.294;2023-04-03T15:34:57;7.20;69.70
47090;DHT22;32840;52.516;13.294;2023-04-03T15:37:43;7.10;70.80
47090;DHT22;32840;52.516;13.294;2023-04-03T15:40:28;6.90;71.10
47090;DHT22;32840;52.516;13.294;2023-04-03T15:43:13;6.90;71.40
47090;DHT22;32840;52.516;13.294;2023-04-03T15:45:58;6.90;71.70
47090;DHT22;32840;52.516;13.294;2023-04-03T15:48:44;6.90;72.20
47090;DHT22;32840;52.516;13.294;2023-04-03T15:51:31;6.90;71.70
47090;DHT22;32840;52.516;13.294;2023-04-03T15:54:16;6.70;72.40
47090;DHT22;32840;52.516;13.294;2023-04-03T15:57:02;6.60;72.90
47090;DHT22;32840;52.516;13.294;2023-04-03T15:59:47;6.60;73.00
47090;DHT22;32840;52.516;13.294;2023-04-03T16:02:33;6.60;73.20
47090;DHT22;32840;52.516;13.294;2023-04-03T16:05:19;6.70;73.10
47090;DHT22;32840;52.516;13.294;2023-04-03T16:08:05;6.60;72.80
47090;DHT22;32840;52.516;13.294;2023-04-03T16:10:50;6.60;73.30
47090;DHT22;32840;52.516;13.294;2023-04-03T16:13:35;6.70;72.20
47090;DHT22;32840;52.516;13.294;2023-04-03T16:16:20;6.70;72.40
47090;DHT22;32840;52.516;13.294;2023-04-03T16:19:07;6.50;73.10
47090;DHT22;32840;52.516;13.294;2023-04-03T16:21:54;6.50;73.60
47090;DHT22;32840;52.516;13.294;2023-04-03T16:24:40;6.50;74.20
47090;DHT22;32840;52.516;13.294;2023-04-03T16:27:25;6.50;75.10
47090;DHT22;32840;52.516;13.294;2023-04-03T16:30:15;6.50;75.60
47090;DHT22;32840;52.516;13.294;2023-04-03T16:32:59;6.40;76.20
47090;DHT22;32840;52.516;13.294;2023-04-03T16:35:44;6.40;76.20
47090;DHT22;32840;52.516;13.294;2023-04-03T16:38:30;6.40;76.30
47090;DHT22;32840;52.516;13.294;2023-04-03T16:41:15;6.50;76.10
47090;DHT22;32840;52.516;13.294;2023-04-03T16:43:59;6.60;76.50
47090;DHT22;32840;52.516;13.294;2023-04-03T16:46:46;6.60;76.70
47090;DHT22;32840;52.516;13.294;2023-04-03T16:49:31;6.40;76.90
47090;DHT22;32840;52.516;13.294;2023-04-03T16:52:19;6.50;77.50
47090;DHT22;32840;52.516;13.294;2023-04-03T16:55:04;6.50;78.10
47090;DHT22;32840;52.516;13.294;2023-04-03T16:57:50;6.50;78.20
47090;DHT22;32840;52.516;13.294;2023-04-03T17:00:35;6.60;77.80
47090;DHT22;32840;52.516;13.294;2023-04-03T17:03:21;6.40;78.00
47090;DHT22;32840;52.516;13.294;2023-04-03T17:06:11;6.30;79.60
47090;DHT22;32840;52.516;13.294;2023-04-03T17:09:00;6.30;79.90
47090;DHT22;32840;52.516;13.294;2023-04-03T17:11:45;6.20;80.20
47090;DHT22;32840;52.516;13.294;2023-04-03T17:14:30;6.10;80.40
47090;DHT22;32840;52.516;13.294;2023-04-03T17:17:20;6.00;80.80
47090;DHT22;32840;52.516;13.294;2023-04-03T17:20:06;6.10;81.60
47090;DHT22;32840;52.516;13.294;2023-04-03T17:22:53;6.10;81.30
47090;DHT22;32840;52.516;13.294;2023-04-03T17:25:41;6.10;82.10
47090;DHT22;32840;52.516;13.294;2023-04-03T17:28:28;6.10;82.00
47090;DHT22;32840;52.516;13.294;2023-04-03T17:31:14;6.10;81.90
47090;DHT22;32840;52.516;13.294;2023-04-03T17:33:59;6.10;81.80
47090;DHT22;32840;52.516;13.294;2023-04-03T17:36:47;6.00;82.00
47090;DHT22;32840;52.516;13.294;2023-04-03T17:39:33;6.10;82.30
47090;DHT22;32840;52.516;13.294;2023-04-03T17:42:21;6.00;82.50
47090;DHT22;32840;52.516;13.294;2023-04-03T17:45:06;6.00;83.10
47090;DHT22;32840;52.516;13.294;2023-04-03T17:47:51;5.90;83.10
47090;DHT22;32840;52.516;13.294;2023-04-03T17:50:37;6.00;83.40
47090;DHT22;32840;52.516;13.294;2023-04-03T17:53:22;5.90;84.30
47090;DHT22;32840;52.516;13.294;2023-04-03T17:56:11;5.90;84.10
47090;DHT22;32840;52.516;13.294;2023-04-03T17:58:59;5.80;85.00
47090;DHT22;32840;52.516;13.294;2023-04-03T18:01:45;5.80;86.00
47090;DHT22;32840;52.516;13.294;2023-04-03T18:04:32;5.80;86.60
47090;DHT22;32840;52.516;13.294;2023-04-03T18:07:17;5.90;87.60
47090;DHT22;32840;52.516;13.294;2023-04-03T18:10:06;5.90;87.50
47090;DHT22;32840;52.516;13.294;2023-04-03T18:12:53;5.90;88.40
47090;DHT22;32840;52.516;13.294;2023-04-03T18:15:38;5.80;89.00
47090;DHT22;32840;52.516;13.294;2023-04-03T18:18:29;5.80;89.80
47090;DHT22;32840;52.516;13.294;2023-04-03T18:21:14;5.80;90.30
47090;DHT22;32840;52.516;13.294;2023-04-03T18:24:00;5.70;90.00
47090;DHT22;32840;52.516;13.294;2023-04-03T18:26:52;5.70;90.40
47090;DHT22;32840;52.516;13.294;2023-04-03T18:29:40;5.70;90.70
47090;DHT22;32840;52.516;13.294;2023-04-03T18:32:27;5.70;90.80
47090;DHT22;32840;52.516;13.294;2023-04-03T18:35:11;5.70;90.40
47090;DHT22;32840;52.516;13.294;2023-04-03T18:37:56;5.60;90.50
47090;DHT22;32840;52.516;13.294;2023-04-03T18:40:41;5.60;90.50
47090;DHT22;32840;52.516;13.294;2023-04-03T18:43:28;5.80;91.00
47090;DHT22;32840;52.516;13.294;2023-04-03T18:46:15;5.80;90.70
47090;DHT22;32840;52.516;13.294;2023-04-03T18:49:03;5.70;91.00
47090;DHT22;32840;52.516;13.294;2023-04-03T18:51:48;5.60;91.30